Time;durP1;ratioP1;P1;durP2;ratioP2;P2;SDS_P1;SDS_P2;PMS_P1;PMS_P2;Temp;Humidity;BMP_temperature;BMP_pressure;BME280_temperature;BME280_humidity;BME280_pressure;Samples;Min_cycle;Max_cycle;Signal;HPM_P1;HPM_P2
2023/01/31 00:01:19;;;;;;;21.90;3.38;;;3.70;99.90;;;;;;5079409;28;20048;-59
2023/01/31 00:03:47;;;;;;;16.85;2.72;;;3.40;99.90;;;;;;5080383;28;20127;-60
2023/01/31 00:06:17;;;;;;;18.10;2.42;;;3.40;99.90;;;;;;5080986;28;20051;-60
2023/01/31 00:08:43;;;;;;;15.60;2.53;;;3.50;99.90;;;;;;5099561;28;20077;-60
2023/01/31 00:11:10;;;;;;;18.85;4.72;;;3.80;99.90;;;;;;5099621;28;20137;-60
2023/01/31 00:13:36;;;;;;;19.70;3.80;;;3.30;99.90;;;;;;5099432;28;20503;-59
2023/01/31 00:16:02;;;;;;;15.65;2.25;;;3.20;99.90;;;;;;5099823;28;20044;-60
2023/01/31 00:18:27;;;;;;;14.52;2.40;;;3.50;99.90;;;;;;5099262;28;20043;-59
2023/01/31 00:20:53;;;;;;;18.10;2.47;;;3.50;99.90;;;;;;5100155;28;20047;-60
2023/01/31 00:23:18;;;;;;;20.55;3.90;;;3.50;99.90;;;;;;5099381;28;20044;-59
2023/01/31 00:25:44;;;;;;;18.80;3.75;;;3.50;99.90;;;;;;5099289;28;20040;-59
2023/01/31 00:28:10;;;;;;;15.43;2.78;;;3.30;99.90;;;;;;5099102;28;20083;-60
2023/01/31 00:30:35;;;;;;;14.50;2.67;;;3.30;99.90;;;;;;5099347;28;20042;-59
2023/01/31 00:33:01;;;;;;;14.05;2.20;;;3.40;99.90;;;;;;5099510;28;20051;-59
2023/01/31 00:35:27;;;;;;;16.52;2.22;;;3.00;99.90;;;;;;5081028;28;20272;-59
2023/01/31 00:37:53;;;;;;;22.70;3.55;;;3.20;99.90;;;;;;5099005;28;20032;-60
2023/01/31 00:40:19;;;;;;;11.93;3.10;;;3.50;99.90;;;;;;5099250;28;20039;-58
2023/01/31 00:42:44;;;;;;;12.13;3.08;;;3.40;99.90;;;;;;5099367;28;20036;-59
2023/01/31 00:45:10;;;;;;;15.50;2.85;;;3.40;99.90;;;;;;5098953;28;20036;-59
2023/01/31 00:47:36;;;;;;;17.00;2.88;;;3.40;99.90;;;;;;5098838;28;20044;-60
2023/01/31 00:50:03;;;;;;;26.88;3.15;;;3.30;99.90;;;;;;5080871;28;20086;-60
2023/01/31 00:52:28;;;;;;;13.52;2.80;;;2.80;99.90;;;;;;5098388;28;20059;-60
2023/01/31 00:54:54;;;;;;;15.45;2.42;;;3.10;99.90;;;;;;5080838;28;20353;-60
2023/01/31 00:57:20;;;;;;;19.50;2.55;;;3.00;99.90;;;;;;5078573;28;20041;-60
2023/01/31 00:59:45;;;;;;;10.18;2.00;;;2.90;99.90;;;;;;5079068;28;20051;-60
2023/01/31 01:02:11;;;;;;;10.35;2.05;;;3.20;99.90;;;;;;5078228;28;20567;-60
2023/01/31 01:04:37;;;;;;;13.43;2.13;;;3.20;99.90;;;;;;5077919;28;20041;-60
2023/01/31 01:07:02;;;;;;;17.45;3.33;;;2.80;99.90;;;;;;5077393;28;20051;-60
2023/01/31 01:09:28;;;;;;;14.50;2.20;;;3.00;99.90;;;;;;5078477;28;20044;-60
2023/01/31 01:11:54;;;;;;;8.90;1.67;;;3.20;99.90;;;;;;5078616;28;20036;-60
2023/01/31 01:14:19;;;;;;;20.95;2.70;;;2.60;99.90;;;;;;5078362;28;20076;-59
2023/01/31 01:16:45;;;;;;;16.75;2.42;;;2.70;99.90;;;;;;5060763;28;20048;-60
2023/01/31 01:19:16;;;;;;;16.83;2.58;;;3.00;99.90;;;;;;5059704;28;20079;-60
2023/01/31 01:21:43;;;;;;;13.35;2.30;;;3.10;99.90;;;;;;5078195;28;20087;-60
2023/01/31 01:24:17;;;;;;;15.80;2.35;;;3.20;99.90;;;;;;5078271;28;20052;-59
2023/01/31 01:26:43;;;;;;;13.65;2.72;;;3.20;99.90;;;;;;5083122;28;20522;-59
2023/01/31 01:29:09;;;;;;;15.82;3.88;;;2.70;99.90;;;;;;5098962;28;20043;-58
2023/01/31 01:31:36;;;;;;;12.75;2.15;;;3.10;99.90;;;;;;5098211;28;20105;-59
2023/01/31 01:34:16;;;;;;;15.32;1.95;;;2.80;99.90;;;;;;5098532;28;20111;-59
2023/01/31 01:36:42;;;;;;;17.13;2.92;;;2.90;99.90;;;;;;5098530;28;20426;-59
2023/01/31 01:39:10;;;;;;;17.92;2.83;;;2.70;99.90;;;;;;5098440;28;20043;-60
2023/01/31 01:41:38;;;;;;;18.95;2.08;;;3.20;99.90;;;;;;5098211;28;20059;-60
2023/01/31 01:44:41;;;;;;;17.50;3.05;;;2.80;99.90;;;;;;5098202;28;20032;-60
2023/01/31 01:47:29;;;;;;;19.45;2.53;;;3.10;99.90;;;;;;5098013;28;20048;-59
2023/01/31 01:50:06;;;;;;;14.05;2.78;;;3.50;99.90;;;;;;5098433;28;20047;-60
2023/01/31 01:52:35;;;;;;;19.17;2.33;;;3.40;99.90;;;;;;5098298;28;20069;-59
2023/01/31 01:55:20;;;;;;;18.40;2.80;;;3.20;99.90;;;;;;5078738;28;20052;-59
2023/01/31 01:57:50;;;;;;;23.38;2.70;;;3.00;99.90;;;;;;5078126;28;20067;-60
2023/01/31 02:00:22;;;;;;;19.55;2.63;;;3.50;99.90;;;;;;5078243;28;20051;-60
2023/01/31 02:02:50;;;;;;;22.65;3.33;;;3.00;99.90;;;;;;5078178;28;20392;-59
2023/01/31 02:05:21;;;;;;;21.35;4.05;;;3.60;99.90;;;;;;5077768;28;20052;-60
2023/01/31 02:07:47;;;;;;;14.43;2.25;;;3.10;99.90;;;;;;5078454;28;20048;-60
2023/01/31 02:10:28;;;;;;;16.88;2.85;;;3.10;99.90;;;;;;5077898;28;20052;-59
2023/01/31 02:12:54;;;;;;;15.93;2.80;;;3.70;99.90;;;;;;5077920;28;20048;-60
2023/01/31 02:15:21;;;;;;;17.98;2.78;;;3.40;99.90;;;;;;5077854;28;20051;-60
2023/01/31 02:17:46;;;;;;;15.43;2.70;;;3.20;99.90;;;;;;5078057;28;20263;-60
2023/01/31 02:20:43;;;;;;;18.33;3.00;;;3.70;99.90;;;;;;5081716;28;20078;-59
2023/01/31 02:23:35;;;;;;;15.63;2.78;;;3.50;99.90;;;;;;5081404;28;20518;-59
2023/01/31 02:26:22;;;;;;;18.05;4.57;;;3.70;99.90;;;;;;5081441;28;20119;-55
2023/01/31 02:29:07;;;;;;;20.88;3.40;;;3.20;99.90;;;;;;5081574;28;20119;-59
2023/01/31 02:32:06;;;;;;;17.65;2.70;;;3.90;99.90;;;;;;5081120;28;20041;-60
2023/01/31 02:34:48;;;;;;;23.67;3.30;;;3.30;99.90;;;;;;5033974;28;20049;-59
2023/01/31 02:37:26;;;;;;;16.98;3.20;;;3.50;99.90;;;;;;5081114;28;20075;-60
2023/01/31 02:40:06;;;;;;;17.60;2.15;;;3.60;99.90;;;;;;5081382;28;20052;-60
2023/01/31 02:42:52;;;;;;;21.40;2.63;;;3.60;99.90;;;;;;5081439;28;20040;-60
2023/01/31 02:45:45;;;;;;;19.20;3.58;;;3.50;99.90;;;;;;5081142;28;20041;-60
2023/01/31 02:48:36;;;;;;;18.92;3.30;;;4.00;99.90;;;;;;5080776;28;20082;-60
2023/01/31 02:51:07;;;;;;;19.83;2.40;;;3.40;99.90;;;;;;5081070;28;20101;-56
2023/01/31 02:53:36;;;;;;;18.42;3.30;;;4.00;99.90;;;;;;5088324;28;20028;-58
2023/01/31 02:56:26;;;;;;;19.67;2.78;;;4.10;99.90;;;;;;5101337;28;20070;-60
2023/01/31 02:58:56;;;;;;;20.40;2.97;;;3.40;99.90;;;;;;5101289;28;20068;-60
2023/01/31 03:01:30;;;;;;;21.80;3.33;;;4.10;99.90;;;;;;5101147;28;20059;-59
2023/01/31 03:04:05;;;;;;;21.85;4.13;;;3.70;99.90;;;;;;5101468;28;20051;-60
2023/01/31 03:06:33;;;;;;;23.02;3.83;;;3.80;99.90;;;;;;5101004;28;20051;-60
2023/01/31 03:09:20;;;;;;;19.52;2.70;;;3.70;99.90;;;;;;5100793;28;20050;-60
2023/01/31 03:12:03;;;;;;;20.13;3.13;;;4.20;99.90;;;;;;5101075;28;20048;-59
2023/01/31 03:15:05;;;;;;;13.77;2.05;;;4.10;99.90;;;;;;5101033;28;20135;-59
2023/01/31 03:17:46;;;;;;;15.90;2.45;;;3.60;99.90;;;;;;5100377;28;20047;-59
2023/01/31 03:20:29;;;;;;;16.35;3.70;;;4.20;99.90;;;;;;5100774;28;20497;-60
2023/01/31 03:23:02;;;;;;;14.02;2.80;;;3.80;99.90;;;;;;5100584;28;20047;-59
2023/01/31 03:25:33;;;;;;;15.02;2.88;;;4.40;99.90;;;;;;5100762;28;21051;-59
2023/01/31 03:28:02;;;;;;;20.13;3.85;;;4.20;99.90;;;;;;5100285;28;20044;-60
2023/01/31 03:30:38;;;;;;;23.33;3.58;;;4.30;99.90;;;;;;5099618;28;20097;-60
2023/01/31 03:33:29;;;;;;;24.15;2.95;;;3.90;99.90;;;;;;5100615;28;20075;-60
2023/01/31 03:36:33;;;;;;;20.55;4.18;;;4.50;99.90;;;;;;5100446;28;20044;-60
2023/01/31 03:39:05;;;;;;;24.55;3.30;;;4.40;99.90;;;;;;5100354;28;20083;-59
2023/01/31 03:41:41;;;;;;;21.73;3.42;;;4.60;99.90;;;;;;5100379;28;20063;-60
2023/01/31 03:44:22;;;;;;;20.88;2.88;;;4.10;99.90;;;;;;5100155;28;20479;-60
2023/01/31 03:46:53;;;;;;;25.48;3.90;;;4.60;99.90;;;;;;5100685;28;20066;-60
2023/01/31 03:49:21;;;;;;;25.50;4.82;;;4.80;99.90;;;;;;5099795;28;20055;-60
2023/01/31 03:51:53;;;;;;;19.70;3.90;;;4.90;99.90;;;;;;5100020;28;20040;-59
2023/01/31 03:54:26;;;;;;;18.60;3.25;;;4.50;99.90;;;;;;5086250;28;20069;-59
2023/01/31 03:56:56;;;;;;;19.40;4.60;;;4.90;99.90;;;;;;5079875;28;20045;-60
2023/01/31 03:59:27;;;;;;;22.60;3.85;;;4.30;99.90;;;;;;5080318;28;20048;-59
2023/01/31 04:01:57;;;;;;;25.20;2.90;;;4.80;99.90;;;;;;5079117;28;20040;-60
2023/01/31 04:05:03;;;;;;;27.63;4.43;;;5.10;99.90;;;;;;5086344;28;20047;-60
2023/01/31 04:07:28;;;;;;;27.23;3.75;;;4.60;99.90;;;;;;5058988;28;20101;-59
2023/01/31 04:09:54;;;;;;;21.13;3.60;;;5.10;99.90;;;;;;5099927;28;20036;-59
2023/01/31 04:12:20;;;;;;;19.77;3.50;;;4.50;99.90;;;;;;5100018;28;20071;-60
2023/01/31 04:14:46;;;;;;;21.83;3.63;;;5.20;99.90;;;;;;5099659;28;20040;-60
2023/01/31 04:17:11;;;;;;;21.20;3.42;;;5.10;99.90;;;;;;5099638;28;20036;-61
2023/01/31 04:19:37;;;;;;;28.65;4.55;;;5.00;99.90;;;;;;5099481;28;20044;-60
2023/01/31 04:22:03;;;;;;;22.27;4.57;;;4.40;99.90;;;;;;5099641;28;20049;-60
2023/01/31 04:24:28;;;;;;;24.33;4.65;;;5.10;99.90;;;;;;5099931;28;20096;-59
2023/01/31 04:26:54;;;;;;;27.58;4.45;;;4.60;99.90;;;;;;5098993;28;20055;-59
2023/01/31 04:29:20;;;;;;;24.38;5.22;;;5.20;99.90;;;;;;5100024;28;20036;-60
2023/01/31 04:31:46;;;;;;;21.50;3.95;;;4.50;99.90;;;;;;5099259;28;20047;-59
2023/01/31 04:34:11;;;;;;;28.30;5.13;;;5.00;99.90;;;;;;5099526;28;20044;-59
2023/01/31 04:36:37;;;;;;;29.50;5.47;;;4.40;99.90;;;;;;5081021;28;20119;-59
2023/01/31 04:39:03;;;;;;;22.45;5.88;;;4.80;99.90;;;;;;5099050;28;20126;-60
2023/01/31 04:41:29;;;;;;;27.00;3.85;;;5.30;99.90;;;;;;5099016;28;20059;-60
2023/01/31 04:43:55;;;;;;;23.83;5.40;;;4.50;99.90;;;;;;5099368;28;20119;-60
2023/01/31 04:46:20;;;;;;;27.02;4.30;;;4.80;99.90;;;;;;5099355;28;20040;-59
2023/01/31 04:48:46;;;;;;;32.30;4.78;;;5.10;99.90;;;;;;5098810;28;20471;-60
2023/01/31 04:51:12;;;;;;;19.02;4.32;;;5.40;99.90;;;;;;5099339;28;20043;-60
2023/01/31 04:53:37;;;;;;;23.92;5.10;;;4.40;99.90;;;;;;5090804;28;20044;-60
2023/01/31 04:56:04;;;;;;;27.27;3.97;;;4.90;99.90;;;;;;5078196;28;20037;-60
2023/01/31 04:58:30;;;;;;;27.17;4.28;;;4.60;99.90;;;;;;5095628;28;20080;-60
2023/01/31 05:00:56;;;;;;;23.58;4.97;;;4.50;99.90;;;;;;5098751;28;20070;-60
2023/01/31 05:03:22;;;;;;;22.30;4.70;;;4.40;99.90;;;;;;5098984;28;20075;-59
2023/01/31 05:05:48;;;;;;;23.02;3.90;;;5.00;99.90;;;;;;5080452;28;20040;-58
2023/01/31 05:08:14;;;;;;;27.08;6.28;;;4.50;99.90;;;;;;5099426;28;20044;-59
2023/01/31 05:10:41;;;;;;;21.80;4.30;;;5.00;99.90;;;;;;5098623;28;20137;-59
2023/01/31 05:13:07;;;;;;;31.33;4.65;;;5.40;99.90;;;;;;5098811;28;20127;-59
2023/01/31 05:15:33;;;;;;;26.08;4.43;;;5.40;99.90;;;;;;5098644;28;20044;-59
2023/01/31 05:18:02;;;;;;;19.23;4.95;;;4.60;99.90;;;;;;5098675;28;20090;-59
2023/01/31 05:20:30;;;;;;;26.15;4.50;;;4.70;99.90;;;;;;5099308;28;20048;-58
2023/01/31 05:22:57;;;;;;;38.95;6.93;;;4.50;99.90;;;;;;5098620;28;20080;-59
2023/01/31 05:25:23;;;;;;;27.77;4.70;;;5.50;99.90;;;;;;5094544;28;20063;-59
2023/01/31 05:27:49;;;;;;;24.50;4.43;;;5.00;99.90;;;;;;5095161;28;20063;-59
2023/01/31 05:30:15;;;;;;;29.08;5.47;;;5.50;99.90;;;;;;5095459;28;20132;-59
2023/01/31 05:32:41;;;;;;;28.30;5.30;;;5.40;99.90;;;;;;5095282;28;20046;-60
2023/01/31 05:35:06;;;;;;;22.58;4.20;;;5.40;99.90;;;;;;5094864;28;20048;-58
2023/01/31 05:37:32;;;;;;;27.73;4.57;;;5.50;99.90;;;;;;5095588;28;20047;-59
2023/01/31 05:39:58;;;;;;;32.95;5.70;;;4.90;99.90;;;;;;5095097;28;20056;-59
2023/01/31 05:42:23;;;;;;;22.75;4.18;;;4.70;99.90;;;;;;5095538;28;20044;-59
2023/01/31 05:44:49;;;;;;;26.55;4.70;;;5.50;99.90;;;;;;5095298;28;20054;-59
2023/01/31 05:47:15;;;;;;;21.63;4.45;;;5.50;99.90;;;;;;5094930;28;20083;-59
2023/01/31 05:49:40;;;;;;;27.77;3.90;;;4.80;99.90;;;;;;5088971;28;20044;-59
2023/01/31 05:52:06;;;;;;;33.40;4.60;;;5.50;99.90;;;;;;5085752;28;20074;-59
2023/01/31 05:54:33;;;;;;;28.80;4.43;;;5.10;99.90;;;;;;5089843;28;20036;-59
2023/01/31 05:56:59;;;;;;;27.27;5.05;;;5.40;99.90;;;;;;5088651;28;20059;-59
2023/01/31 05:59:25;;;;;;;29.77;4.85;;;4.90;99.90;;;;;;5079143;28;20040;-59
2023/01/31 06:01:50;;;;;;;24.83;4.72;;;4.60;99.90;;;;;;5078494;28;20048;-59
2023/01/31 06:04:16;;;;;;;30.45;5.20;;;4.70;99.90;;;;;;5078991;28;20055;-59
2023/01/31 06:06:43;;;;;;;32.17;5.70;;;4.70;99.90;;;;;;5060625;28;20091;-59
2023/01/31 06:09:10;;;;;;;27.08;6.93;;;4.60;99.90;;;;;;5078628;28;20044;-58
2023/01/31 06:11:36;;;;;;;19.83;5.05;;;5.50;99.90;;;;;;5079518;28;20040;-60
2023/01/31 06:14:02;;;;;;;26.00;4.97;;;5.50;99.90;;;;;;5081251;28;20048;-60
2023/01/31 06:16:27;;;;;;;28.55;6.05;;;5.50;99.90;;;;;;5082162;28;20056;-60
2023/01/31 06:18:54;;;;;;;28.40;5.15;;;5.60;99.90;;;;;;5081225;28;20037;-60
2023/01/31 06:21:20;;;;;;;24.38;5.00;;;4.70;99.90;;;;;;5081561;28;20052;-60
2023/01/31 06:23:46;;;;;;;25.67;4.45;;;5.50;99.90;;;;;;5081319;28;20109;-59
2023/01/31 06:26:13;;;;;;;23.52;4.13;;;4.70;99.90;;;;;;5081540;28;20102;-59
2023/01/31 06:28:39;;;;;;;28.88;5.97;;;5.40;99.90;;;;;;5081636;28;20500;-60
2023/01/31 06:31:09;;;;;;;25.33;5.10;;;5.50;99.90;;;;;;5081607;28;20079;-60
2023/01/31 06:33:34;;;;;;;24.25;4.93;;;4.70;99.90;;;;;;5082017;28;20072;-60
2023/01/31 06:36:00;;;;;;;30.20;5.15;;;5.10;99.90;;;;;;5081523;28;20465;-60
2023/01/31 06:38:27;;;;;;;26.20;4.32;;;4.70;99.90;;;;;;5063578;28;20084;-60
2023/01/31 06:40:53;;;;;;;30.50;4.55;;;5.60;99.90;;;;;;5081557;28;20045;-60
2023/01/31 06:43:18;;;;;;;20.80;4.15;;;4.70;99.90;;;;;;5081143;28;20059;-59
2023/01/31 06:45:44;;;;;;;24.42;4.28;;;4.70;99.90;;;;;;5081644;28;20033;-60
2023/01/31 06:48:10;;;;;;;21.20;4.00;;;4.70;99.90;;;;;;5081004;28;20042;-59
2023/01/31 06:50:36;;;;;;;26.65;5.18;;;5.50;99.90;;;;;;5063506;28;20037;-59
2023/01/31 06:53:02;;;;;;;33.67;5.40;;;5.10;99.90;;;;;;5084255;28;20059;-60
2023/01/31 06:55:28;;;;;;;35.03;6.25;;;5.10;99.90;;;;;;5101867;28;20047;-60
2023/01/31 06:57:54;;;;;;;24.20;5.13;;;4.90;99.90;;;;;;5101205;28;20051;-60
2023/01/31 07:00:21;;;;;;;23.67;4.63;;;5.10;99.90;;;;;;5101244;28;20068;-60
2023/01/31 07:02:47;;;;;;;24.58;3.90;;;5.00;99.90;;;;;;5101314;28;20036;-60
2023/01/31 07:05:14;;;;;;;24.27;4.68;;;5.70;99.90;;;;;;5099881;28;20040;-60
2023/01/31 07:07:40;;;;;;;22.65;4.05;;;5.50;99.90;;;;;;5101584;28;20093;-60
2023/01/31 07:10:06;;;;;;;23.42;4.82;;;5.00;99.90;;;;;;5101032;28;20047;-60
2023/01/31 07:12:32;;;;;;;21.27;4.22;;;5.60;99.90;;;;;;5101673;28;20051;-60
2023/01/31 07:14:57;;;;;;;19.75;3.85;;;5.80;99.90;;;;;;5100769;28;20044;-59
2023/01/31 07:17:23;;;;;;;22.90;3.53;;;5.50;99.90;;;;;;5082538;28;20506;-59
2023/01/31 07:19:49;;;;;;;21.27;3.92;;;5.50;99.90;;;;;;5100589;28;20040;-59
2023/01/31 07:22:15;;;;;;;19.55;3.45;;;5.40;99.90;;;;;;5100749;28;20533;-59
2023/01/31 07:24:40;;;;;;;19.15;3.97;;;5.70;99.90;;;;;;5082938;28;20105;-60
2023/01/31 07:27:06;;;;;;;21.98;3.30;;;5.90;99.90;;;;;;5100730;28;20105;-59
2023/01/31 07:29:32;;;;;;;22.02;3.92;;;5.80;99.90;;;;;;5101266;28;20686;-60
2023/01/31 07:31:58;;;;;;;24.65;3.65;;;5.90;99.90;;;;;;5100647;28;20040;-60
2023/01/31 07:34:23;;;;;;;19.77;3.20;;;5.50;99.90;;;;;;5100627;28;20044;-60
2023/01/31 07:36:50;;;;;;;18.08;3.92;;;5.80;99.90;;;;;;5100539;28;20556;-60
2023/01/31 07:39:16;;;;;;;16.80;3.00;;;5.60;99.90;;;;;;5100587;28;20044;-60
2023/01/31 07:41:42;;;;;;;18.55;3.25;;;5.60;99.90;;;;;;5100973;28;20048;-60
2023/01/31 07:44:11;;;;;;;22.73;3.35;;;5.70;99.90;;;;;;5096099;28;20036;-59
2023/01/31 07:46:38;;;;;;;22.85;5.30;;;5.20;99.90;;;;;;5097566;28;20044;-56
2023/01/31 07:49:04;;;;;;;18.55;3.42;;;5.20;99.90;;;;;;5096431;28;20545;-60
2023/01/31 07:51:29;;;;;;;20.02;3.35;;;5.60;99.90;;;;;;5097190;28;20036;-60
2023/01/31 07:53:55;;;;;;;16.27;3.72;;;5.30;99.90;;;;;;5086299;28;20055;-60
2023/01/31 07:56:21;;;;;;;16.02;3.83;;;6.00;99.90;;;;;;5076397;28;20045;-60
2023/01/31 07:58:48;;;;;;;18.10;3.90;;;5.60;99.90;;;;;;5076704;28;20036;-60
2023/01/31 08:04:08;;;;;;;19.17;2.85;;;5.90;99.90;;;;;;5044445;28;20474;-59
2023/01/31 08:06:35;;;;;;;16.85;4.20;;;6.10;99.90;;;;;;5076083;28;20059;-60
2023/01/31 08:09:02;;;;;;;21.02;3.05;;;5.70;99.90;;;;;;5076453;28;20060;-60
2023/01/31 08:11:27;;;;;;;16.50;2.58;;;5.60;99.90;;;;;;5075969;28;20051;-60
2023/01/31 08:13:53;;;;;;;18.00;3.05;;;5.30;99.90;;;;;;5075148;28;20036;-60
2023/01/31 08:16:20;;;;;;;13.82;2.47;;;5.70;99.90;;;;;;5076532;28;20044;-61
2023/01/31 08:18:50;;;;;;;22.10;4.85;;;5.50;99.90;;;;;;5075728;28;20041;-60
2023/01/31 08:21:15;;;;;;;17.23;2.90;;;5.60;99.90;;;;;;5076259;28;20048;-60
2023/01/31 08:23:42;;;;;;;18.35;3.08;;;5.30;99.90;;;;;;5076046;28;20044;-60
2023/01/31 08:26:14;;;;;;;20.27;4.45;;;6.10;99.90;;;;;;5075799;28;20044;-60
2023/01/31 08:28:41;;;;;;;12.30;3.05;;;6.00;99.90;;;;;;5075020;28;20845;-60
2023/01/31 08:31:16;;;;;;;14.27;3.17;;;5.60;99.90;;;;;;5056705;28;20044;-59
2023/01/31 08:33:42;;;;;;;17.13;4.15;;;5.50;99.90;;;;;;5076260;28;20044;-60
2023/01/31 08:36:13;;;;;;;21.00;4.55;;;5.70;99.90;;;;;;5057939;28;20526;-60
2023/01/31 08:38:39;;;;;;;19.90;3.25;;;6.30;99.90;;;;;;5075966;28;20254;-60
2023/01/31 08:41:04;;;;;;;19.55;2.88;;;5.50;99.90;;;;;;5075634;28;20048;-60
2023/01/31 08:43:31;;;;;;;22.48;3.63;;;5.70;99.90;;;;;;5057200;28;20044;-60
2023/01/31 08:45:57;;;;;;;24.75;4.20;;;5.60;99.90;;;;;;5076080;28;20045;-61
2023/01/31 08:48:22;;;;;;;20.75;3.63;;;5.60;99.90;;;;;;5075373;28;20040;-59
2023/01/31 08:50:48;;;;;;;17.42;3.20;;;6.10;99.90;;;;;;5090860;28;20052;-60
2023/01/31 08:53:14;;;;;;;18.10;3.10;;;6.60;99.90;;;;;;5091208;28;20761;-60
2023/01/31 08:55:39;;;;;;;25.02;3.40;;;6.60;99.90;;;;;;5075157;28;20425;-60
2023/01/31 08:58:05;;;;;;;15.88;3.42;;;6.30;99.90;;;;;;5057348;28;20052;-60
2023/01/31 09:00:31;;;;;;;27.52;4.70;;;6.50;99.90;;;;;;5075296;28;20066;-60
2023/01/31 09:02:59;;;;;;;23.20;4.80;;;6.50;99.90;;;;;;5075763;28;20107;-60
2023/01/31 09:05:29;;;;;;;22.02;3.35;;;5.60;99.90;;;;;;5075409;28;20464;-60
2023/01/31 09:07:55;;;;;;;17.60;3.47;;;6.20;99.90;;;;;;5075455;28;20482;-60
2023/01/31 09:10:21;;;;;;;17.60;3.53;;;6.60;99.90;;;;;;5075344;28;20045;-60
2023/01/31 09:12:47;;;;;;;17.23;3.30;;;5.70;99.90;;;;;;5075458;28;20052;-59
2023/01/31 09:15:13;;;;;;;19.23;3.63;;;5.70;99.90;;;;;;5075380;28;20103;-60
2023/01/31 09:17:40;;;;;;;20.60;3.72;;;6.00;99.90;;;;;;5075131;28;20081;-60
2023/01/31 09:20:08;;;;;;;26.63;4.50;;;5.70;99.90;;;;;;5058087;28;20077;-60
2023/01/31 09:22:35;;;;;;;18.42;3.85;;;5.70;99.90;;;;;;5083860;28;20040;-59
2023/01/31 09:25:02;;;;;;;21.13;3.42;;;5.70;99.90;;;;;;5084207;28;20033;-60
2023/01/31 09:27:28;;;;;;;24.42;3.58;;;6.70;99.90;;;;;;5094707;28;20078;-59
2023/01/31 09:29:54;;;;;;;30.70;4.38;;;5.70;99.90;;;;;;5095407;28;20048;-59
2023/01/31 09:32:20;;;;;;;22.75;3.20;;;6.70;99.90;;;;;;5094950;28;20082;-60
2023/01/31 09:34:47;;;;;;;15.52;3.58;;;5.70;99.90;;;;;;5084067;28;20093;-60
2023/01/31 09:37:14;;;;;;;17.55;3.75;;;6.60;99.90;;;;;;5086027;28;20094;-60
2023/01/31 09:39:40;;;;;;;19.90;3.47;;;5.70;99.90;;;;;;5084456;28;20069;-59
2023/01/31 09:42:26;;;;;;;23.95;4.05;;;5.70;99.90;;;;;;5084363;28;20107;-60
2023/01/31 09:45:12;;;;;;;26.90;6.63;;;6.40;99.90;;;;;;5086623;28;20044;-62
2023/01/31 09:47:46;;;;;;;19.83;2.90;;;6.60;99.90;;;;;;5092352;28;20415;-60
2023/01/31 09:50:22;;;;;;;23.88;4.03;;;5.70;99.90;;;;;;5092111;28;20036;-60
2023/01/31 09:52:49;;;;;;;19.80;3.78;;;6.40;99.90;;;;;;5085168;28;20040;-60
2023/01/31 09:56:00;;;;;;;26.60;4.05;;;6.00;99.90;;;;;;5080172;28;20067;-60
2023/01/31 09:58:32;;;;;;;20.88;3.40;;;5.70;99.90;;;;;;5074402;28;20052;-60
2023/01/31 10:01:10;;;;;;;27.52;3.33;;;6.80;99.90;;;;;;5074901;28;20090;-60
2023/01/31 10:03:55;;;;;;;27.00;4.68;;;6.80;99.90;;;;;;5084251;28;20048;-60
2023/01/31 10:06:32;;;;;;;21.58;4.22;;;6.80;99.90;;;;;;5082385;28;20104;-60
2023/01/31 10:09:05;;;;;;;24.08;4.60;;;6.50;99.90;;;;;;5083365;28;20107;-60
2023/01/31 10:11:40;;;;;;;18.48;3.85;;;6.30;99.90;;;;;;5084353;28;20637;-59
2023/01/31 10:14:18;;;;;;;22.17;4.40;;;5.90;99.90;;;;;;5084677;28;20063;-61
2023/01/31 10:16:53;;;;;;;21.08;4.47;;;6.10;99.90;;;;;;5082952;28;20036;-60
2023/01/31 10:19:27;;;;;;;20.80;4.28;;;6.90;99.90;;;;;;5082970;28;20044;-61
2023/01/31 10:21:57;;;;;;;18.85;3.50;;;6.80;99.90;;;;;;5083146;28;20052;-60
2023/01/31 10:24:35;;;;;;;26.45;4.00;;;5.70;99.90;;;;;;5085046;28;20047;-60
2023/01/31 10:27:10;;;;;;;17.15;3.53;;;7.00;99.90;;;;;;5084770;28;20052;-60
2023/01/31 10:29:42;;;;;;;23.40;3.42;;;6.60;99.90;;;;;;5085407;28;20040;-63
2023/01/31 10:32:22;;;;;;;20.77;4.18;;;7.20;99.90;;;;;;5084489;28;20059;-60
2023/01/31 10:35:33;;;;;;;22.48;4.03;;;7.10;99.90;;;;;;5082436;28;20086;-60
2023/01/31 10:38:12;;;;;;;20.98;4.32;;;6.20;99.90;;;;;;5095126;28;20052;-60
2023/01/31 10:40:44;;;;;;;19.25;4.85;;;5.60;99.90;;;;;;5091142;28;20079;-60
2023/01/31 10:43:21;;;;;;;25.75;5.57;;;7.00;99.90;;;;;;5088066;28;20054;-60
2023/01/31 10:45:47;;;;;;;18.25;3.95;;;5.70;99.90;;;;;;5087407;28;20052;-60
2023/01/31 10:48:25;;;;;;;23.30;4.20;;;6.90;99.90;;;;;;5085801;28;20040;-61
2023/01/31 10:50:50;;;;;;;20.02;3.10;;;7.00;99.90;;;;;;5098536;28;20056;-59
2023/01/31 10:53:41;;;;;;;21.70;3.10;;;6.30;99.90;;;;;;5092706;28;20040;-60
2023/01/31 10:56:12;;;;;;;19.67;4.25;;;5.80;99.90;;;;;;5077241;28;20617;-60
2023/01/31 10:58:38;;;;;;;18.98;3.60;;;5.70;99.90;;;;;;5078061;28;20044;-60
2023/01/31 11:01:10;;;;;;;24.42;4.40;;;6.50;99.90;;;;;;5077738;28;20110;-60
2023/01/31 11:03:37;;;;;;;20.65;4.60;;;7.30;99.90;;;;;;5078385;28;20036;-61
2023/01/31 11:06:05;;;;;;;20.98;3.95;;;7.30;99.90;;;;;;5077328;28;20496;-61
2023/01/31 11:08:40;;;;;;;21.67;3.15;;;7.30;99.90;;;;;;5088096;28;20040;-60
2023/01/31 11:11:12;;;;;;;23.92;3.40;;;7.00;99.90;;;;;;5097258;28;20123;-61
2023/01/31 11:13:38;;;;;;;21.13;3.45;;;6.90;99.90;;;;;;5097383;28;20044;-61
2023/01/31 11:16:08;;;;;;;23.52;3.70;;;7.20;99.90;;;;;;5097745;28;20051;-60
2023/01/31 11:18:47;;;;;;;20.52;3.10;;;6.90;99.90;;;;;;5096662;28;20046;-60
2023/01/31 11:21:29;;;;;;;20.98;3.60;;;6.50;99.90;;;;;;5097290;28;20056;-61
2023/01/31 11:24:05;;;;;;;20.27;3.58;;;5.70;99.90;;;;;;5097105;28;20055;-60
2023/01/31 11:26:37;;;;;;;18.52;3.97;;;5.60;99.90;;;;;;5094552;28;20064;-60
2023/01/31 11:29:17;;;;;;;18.50;4.50;;;6.20;99.90;;;;;;5077529;28;20049;-60
2023/01/31 11:31:46;;;;;;;21.27;3.42;;;5.60;99.90;;;;;;5076819;28;20056;-60
2023/01/31 11:34:26;;;;;;;16.55;3.58;;;7.40;99.90;;;;;;5077080;28;20044;-59
2023/01/31 11:36:52;;;;;;;18.10;3.33;;;6.70;99.90;;;;;;5076817;28;20075;-59
2023/01/31 11:39:34;;;;;;;20.48;3.58;;;5.70;99.90;;;;;;5076908;28;20086;-60
2023/01/31 11:42:10;;;;;;;21.40;3.97;;;7.60;99.90;;;;;;5077103;28;20075;-60
2023/01/31 11:44:36;;;;;;;22.50;3.70;;;7.20;99.90;;;;;;5076298;28;20063;-61
2023/01/31 11:47:03;;;;;;;23.33;3.60;;;5.90;99.90;;;;;;5076547;28;20519;-60
2023/01/31 11:49:34;;;;;;;27.73;5.53;;;6.30;99.90;;;;;;5076058;28;20604;-60
2023/01/31 11:52:21;;;;;;;14.38;3.17;;;5.90;99.90;;;;;;5075688;28;20500;-60
2023/01/31 11:55:09;;;;;;;28.38;4.10;;;6.40;99.90;;;;;;5058811;28;20059;-60
2023/01/31 11:57:36;;;;;;;23.00;3.70;;;6.00;99.90;;;;;;5055567;28;20056;-60
2023/01/31 12:00:16;;;;;;;27.17;4.65;;;7.80;99.90;;;;;;5056371;28;20068;-60
2023/01/31 12:02:42;;;;;;;13.43;3.13;;;6.20;99.90;;;;;;5056636;28;20056;-60
2023/01/31 12:05:17;;;;;;;22.77;3.58;;;6.90;99.90;;;;;;5056172;28;20034;-60
2023/01/31 12:07:49;;;;;;;23.85;3.83;;;6.30;99.90;;;;;;5056569;28;20098;-59
2023/01/31 12:10:39;;;;;;;22.10;3.63;;;6.60;99.90;;;;;;5056010;28;20134;-60
2023/01/31 12:13:17;;;;;;;25.17;4.13;;;6.80;99.90;;;;;;5055924;28;20065;-60
2023/01/31 12:15:49;;;;;;;19.67;3.20;;;7.90;99.90;;;;;;5056465;28;20181;-60
2023/01/31 12:18:45;;;;;;;22.02;3.88;;;7.30;99.90;;;;;;5055757;28;20690;-60
2023/01/31 12:21:25;;;;;;;21.00;3.70;;;8.00;99.90;;;;;;5010376;28;20869;-60
2023/01/31 12:24:09;;;;;;;25.48;3.55;;;8.10;99.90;;;;;;5055875;28;20049;-60
2023/01/31 12:26:44;;;;;;;15.85;3.20;;;7.20;99.90;;;;;;5055460;28;20767;-60
2023/01/31 12:29:28;;;;;;;21.15;3.67;;;8.00;99.90;;;;;;5056361;28;20057;-59
2023/01/31 12:32:32;;;;;;;18.17;5.05;;;7.40;99.90;;;;;;5037548;28;20057;-60
2023/01/31 12:35:46;;;;;;;18.50;3.65;;;7.50;99.90;;;;;;5055656;28;20674;-60
2023/01/31 12:38:36;;;;;;;16.95;3.45;;;8.30;99.90;;;;;;5033358;28;20638;-60
2023/01/31 12:41:05;;;;;;;18.65;2.90;;;8.20;99.90;;;;;;5055683;28;20053;-60
2023/01/31 12:44:00;;;;;;;14.77;3.15;;;8.30;99.90;;;;;;5055185;28;20084;-60
2023/01/31 12:46:45;;;;;;;24.38;4.28;;;7.70;99.90;;;;;;5056029;28;20554;-61
2023/01/31 12:49:20;;;;;;;15.02;2.92;;;7.50;99.90;;;;;;5055155;28;20044;-60
2023/01/31 12:52:01;;;;;;;20.45;3.25;;;8.20;99.90;;;;;;5055623;28;20045;-60
2023/01/31 12:54:51;;;;;;;16.58;2.95;;;7.70;99.90;;;;;;5070391;28;20423;-60
2023/01/31 12:57:28;;;;;;;20.08;2.83;;;8.40;99.90;;;;;;5075363;28;20055;-59
2023/01/31 13:00:09;;;;;;;20.75;3.25;;;7.60;99.90;;;;;;5075494;28;20063;-60
2023/01/31 13:02:51;;;;;;;14.77;2.90;;;8.30;99.90;;;;;;5074651;28;20205;-60
2023/01/31 13:05:47;;;;;;;18.50;4.07;;;8.30;99.90;;;;;;5075153;28;20411;-60
2023/01/31 13:08:29;;;;;;;18.17;2.85;;;8.00;99.90;;;;;;5075025;28;20108;-60
2023/01/31 13:11:04;;;;;;;22.77;3.45;;;7.90;99.90;;;;;;5074930;28;20048;-60
2023/01/31 13:13:42;;;;;;;18.42;3.03;;;8.40;99.90;;;;;;5075305;28;20085;-60